Vasiliy Bozhenko — URHP — position and weather

sailwx.info

Track history (hours):
 
Tides and Currents Weather Stations Pressure Air Temp Water Temp Dewpoint Dewpoint Depression Visibility Wind Speed Wind Dir Waves Ship Positions

Vasiliy Bozhenko

Last reported at 2016-Jul-29 04:32 UTC. Time now 2016-Jul-29 06:00 UTC.
Position N 47°52' E 035°06'.

Length 114 m; draft 3.8 m.

Type: Cargo ship. MMSI: 272085000.

Date/timePositionNaut miles runAvg speedWind from/ knotsBaromVisibWave heightAir tempDewpointWater temp
2016-Jul-29 04:32N 47°52' E 035°06'0 0.0
2016-Jul-29 03:32N 47°52' E 035°06'0 0.0
2016-Jul-29 02:32N 47°52' E 035°06'0 0.0
2016-Jul-29 01:32N 47°52' E 035°06'0 0.0
2016-Jul-29 00:32N 47°52' E 035°06'0 0.0
2016-Jul-28 23:32N 47°52' E 035°06'0 0.0
2016-Jul-28 22:32N 47°52' E 035°06'0 0.0
2016-Jul-28 21:32N 47°52' E 035°06'0 0.0
2016-Jul-28 20:32N 47°52' E 035°06'0 0.0
2016-Jul-28 19:32N 47°52' E 035°06'0 0.0
2016-Jul-28 18:20N 47°52' E 035°06'0 0.0
2016-Jul-28 17:32N 47°52' E 035°06'0 0.0
2016-Jul-28 16:32N 47°52' E 035°06'0 0.0
2016-Jul-28 15:26N 47°52' E 035°06'0 0.0
2016-Jul-28 14:32N 47°52' E 035°06'0 0.0
2016-Jul-28 13:32N 47°52' E 035°06'0 0.0
2016-Jul-28 12:33N 47°52' E 035°06'1 0.8
2016-Jul-28 11:33N 47°52' E 035°05'3 2.8
2016-Jul-28 10:34N 47°49' E 035°07'6 6.0
2016-Jul-28 09:33N 47°44' E 035°09'9 6.8
2016-Jul-28 08:13N 47°36' E 035°03'132 4.6
2016-Jul-27 03:31N 46°33' E 032°12'6 6.8
2016-Jul-27 02:33N 46°32' E 032°02'7 6.9
2016-Jul-27 01:33N 46°35' E 031°53'7 6.5
2016-Jul-27 00:32N 46°35' E 031°43'7 6.6
2016-Jul-26 23:27N 46°35' E 031°33'6 6.2
2016-Jul-26 22:29N 46°35' E 031°24'10 7.1
2016-Jul-26 21:08N 46°35' E 031°10'4 7.4
2016-Jul-26 20:33N 46°34' E 031°04'7 6.8
2016-Jul-26 19:34N 46°29' E 030°57'7 7.3
2016-Jul-26 18:34N 46°22' E 030°57'  
Track history (hours):
 
Tides and Currents Weather Stations Pressure Air Temp Water Temp Dewpoint Dewpoint Depression Visibility Wind Speed Wind Dir Waves Ship Positions

Vasiliy Bozhenko

Last reported at 2016-Jul-29 04:32 UTC. Time now 2016-Jul-29 06:00 UTC.
Position N 47°52' E 035°06'.

Length 114 m; draft 3.8 m.

Type: Cargo ship. MMSI: 272085000.

Date/timePositionNaut miles runAvg speedWind from/ knotsBaromVisibWave heightAir tempDewpointWater temp
2016-Jul-29 04:32N 47°52' E 035°06'0 0.0
2016-Jul-29 03:32N 47°52' E 035°06'0 0.0
2016-Jul-29 02:32N 47°52' E 035°06'0 0.0
2016-Jul-29 01:32N 47°52' E 035°06'0 0.0
2016-Jul-29 00:32N 47°52' E 035°06'0 0.0
2016-Jul-28 23:32N 47°52' E 035°06'0 0.0
2016-Jul-28 22:32N 47°52' E 035°06'0 0.0
2016-Jul-28 21:32N 47°52' E 035°06'0 0.0
2016-Jul-28 20:32N 47°52' E 035°06'0 0.0
2016-Jul-28 19:32N 47°52' E 035°06'0 0.0
2016-Jul-28 18:20N 47°52' E 035°06'0 0.0
2016-Jul-28 17:32N 47°52' E 035°06'0 0.0
2016-Jul-28 16:32N 47°52' E 035°06'0 0.0
2016-Jul-28 15:26N 47°52' E 035°06'0 0.0
2016-Jul-28 14:32N 47°52' E 035°06'0 0.0
2016-Jul-28 13:32N 47°52' E 035°06'0 0.0
2016-Jul-28 12:33N 47°52' E 035°06'1 0.8
2016-Jul-28 11:33N 47°52' E 035°05'3 2.8
2016-Jul-28 10:34N 47°49' E 035°07'6 6.0
2016-Jul-28 09:33N 47°44' E 035°09'9 6.8
2016-Jul-28 08:13N 47°36' E 035°03'132 4.6
2016-Jul-27 03:31N 46°33' E 032°12'6 6.8
2016-Jul-27 02:33N 46°32' E 032°02'7 6.9
2016-Jul-27 01:33N 46°35' E 031°53'7 6.5
2016-Jul-27 00:32N 46°35' E 031°43'7 6.6
2016-Jul-26 23:27N 46°35' E 031°33'6 6.2
2016-Jul-26 22:29N 46°35' E 031°24'10 7.1
2016-Jul-26 21:08N 46°35' E 031°10'4 7.4
2016-Jul-26 20:33N 46°34' E 031°04'7 6.8
2016-Jul-26 19:34N 46°29' E 030°57'7 7.3
2016-Jul-26 18:34N 46°22' E 030°57'  

Dump ship's entire track history